Time;durP1;ratioP1;P1;durP2;ratioP2;P2;SDS_P1;SDS_P2;PMS_P1;PMS_P2;Temp;Humidity;BMP_temperature;BMP_pressure;BME280_temperature;BME280_humidity;BME280_pressure;Samples;Min_cycle;Max_cycle;Signal;HPM_P1;HPM_P2
2022/05/11 00:01:57;;;;;;;9.73;4.37;;;;;;;12.17;70.67;100235.16;4485009;32;33813;-58
2022/05/11 00:04:25;;;;;;;8.63;4.60;;;;;;;12.26;70.27;100225.16;4484783;32;33405;-58
2022/05/11 00:06:53;;;;;;;7.00;4.37;;;;;;;12.08;70.98;100221.75;4486076;32;34969;-58
2022/05/11 00:09:20;;;;;;;7.25;4.03;;;;;;;12.17;70.83;100222.16;4484996;32;34726;-58
2022/05/11 00:11:48;;;;;;;10.63;4.40;;;;;;;12.28;70.34;100214.81;4471091;32;34553;-58
2022/05/11 00:14:16;;;;;;;7.30;4.25;;;;;;;12.32;69.75;100216.75;4482120;32;33233;-57
2022/05/11 00:16:44;;;;;;;8.23;4.37;;;;;;;12.04;71.19;100225.03;4483529;32;34028;-57
2022/05/11 00:19:12;;;;;;;8.32;4.30;;;;;;;11.94;71.78;100219.41;4483510;32;33814;-58
2022/05/11 00:21:39;;;;;;;7.55;4.93;;;;;;;11.92;71.94;100221.03;4483766;32;33471;-58
2022/05/11 00:24:07;;;;;;;7.90;4.62;;;;;;;11.97;72.07;100224.72;4485032;32;33103;-58
2022/05/11 00:26:35;;;;;;;7.95;4.90;;;;;;;11.67;73.23;100225.88;4484229;32;34032;-58
2022/05/11 00:29:02;;;;;;;9.43;4.85;;;;;;;11.46;73.95;100216.25;4485569;32;33512;-58
2022/05/11 00:31:30;;;;;;;7.20;4.15;;;;;;;11.41;74.19;100220.31;4485137;32;33502;-58
2022/05/11 00:33:58;;;;;;;9.45;4.43;;;;;;;11.60;73.58;100222.09;4485478;32;33436;-58
2022/05/11 00:36:26;;;;;;;8.95;4.50;;;;;;;11.38;74.10;100221.06;4485807;32;34635;-58
2022/05/11 00:38:53;;;;;;;8.20;4.57;;;;;;;11.34;74.67;100215.69;4470631;32;33917;-58
2022/05/11 00:41:21;;;;;;;9.43;4.82;;;;;;;11.44;73.99;100215.28;4484411;32;33919;-58
2022/05/11 00:43:57;;;;;;;5.90;4.05;;;;;;;11.49;73.55;100219.00;4483121;32;33658;-58
2022/05/11 00:46:36;;;;;;;8.35;4.65;;;;;;;12.05;71.76;100212.06;4485147;32;33635;-58
2022/05/11 00:49:55;;;;;;;8.95;5.00;;;;;;;11.91;71.76;100214.06;4465973;32;33897;-58
2022/05/11 00:52:19;;;;;;;8.80;4.57;;;;;;;12.08;71.10;100222.63;4467851;32;33973;-58
2022/05/11 00:54:59;;;;;;;8.77;4.60;;;;;;;12.13;71.26;100215.94;4469996;32;33170;-58
2022/05/11 00:57:35;;;;;;;8.73;4.15;;;;;;;12.64;69.22;100215.56;4475636;32;91220;-58
2022/05/11 01:00:06;;;;;;;8.25;4.65;;;;;;;12.94;67.78;100215.97;4485203;32;34002;-58
2022/05/11 01:02:34;;;;;;;7.72;4.65;;;;;;;12.34;70.33;100210.81;4484453;32;33918;-58
2022/05/11 01:05:05;;;;;;;7.07;4.07;;;;;;;12.46;70.13;100214.75;4471664;32;33441;-58
2022/05/11 01:07:34;;;;;;;8.80;4.70;;;;;;;12.37;70.50;100216.13;4480418;32;34074;-58
2022/05/11 01:10:05;;;;;;;8.02;4.78;;;;;;;12.13;71.46;100209.81;4463534;32;33598;-58
2022/05/11 01:12:37;;;;;;;7.87;5.07;;;;;;;12.02;71.63;100213.69;4478896;32;33074;-58
2022/05/11 01:15:06;;;;;;;9.50;4.97;;;;;;;11.94;72.06;100211.62;4452371;32;33178;-57
2022/05/11 01:17:36;;;;;;;9.45;4.60;;;;;;;11.80;72.66;100210.03;4466167;32;33989;-58
2022/05/11 01:20:10;;;;;;;8.38;5.10;;;;;;;11.73;72.71;100213.19;4466956;32;34481;-58
2022/05/11 01:22:45;;;;;;;8.98;5.00;;;;;;;11.89;72.11;100220.88;4481767;32;34052;-58
2022/05/11 01:25:13;;;;;;;;;;;;;;;11.89;72.16;100213.09;4482851;32;33335;-58
2022/05/11 01:27:43;;;;;;;9.30;4.68;;;;;;;11.73;72.64;100213.19;4467240;32;34061;-58
2022/05/11 01:30:19;;;;;;;7.62;4.55;;;;;;;11.74;72.50;100220.13;4466858;32;34612;-57
2022/05/11 01:32:50;;;;;;;9.40;5.43;;;;;;;11.72;72.64;100212.28;4463285;32;34794;-58
2022/05/11 01:35:55;;;;;;;8.93;5.20;;;;;;;11.49;73.83;100213.81;4478962;32;33402;-58
2022/05/11 01:38:52;;;;;;;7.62;4.97;;;;;;;11.45;73.97;100222.25;4468949;32;32296;-58
2022/05/11 01:41:35;;;;;;;9.27;5.05;;;;;;;11.52;73.66;100221.72;4475320;32;34526;-58
2022/05/11 01:44:06;;;;;;;9.02;4.75;;;;;;;11.55;73.81;100223.56;4481749;32;33335;-58
2022/05/11 01:46:34;;;;;;;7.85;4.72;;;;;;;11.52;73.85;100219.13;4478979;32;33596;-58
2022/05/11 01:49:03;;;;;;;8.38;4.60;;;;;;;11.48;73.72;100217.22;4468890;32;33503;-58
2022/05/11 01:51:30;;;;;;;7.95;4.87;;;;;;;11.58;73.06;100219.41;4481256;32;33540;-57
2022/05/11 01:53:58;;;;;;;10.98;5.18;;;;;;;11.58;73.06;100214.22;4482288;32;33828;-58
2022/05/11 01:56:26;;;;;;;10.73;5.55;;;;;;;11.36;74.52;100216.63;4479856;32;33452;-58
2022/05/11 01:58:54;;;;;;;11.25;5.50;;;;;;;11.54;73.80;100222.69;4467825;32;32685;-59
2022/05/11 02:01:25;;;;;;;12.20;6.35;;;;;;;11.51;73.92;100224.25;4481788;32;34702;-58
2022/05/11 02:03:54;;;;;;;8.43;5.20;;;;;;;11.54;73.86;100217.50;4480402;32;34022;-57
2022/05/11 02:09:08;;;;;;;10.55;5.60;;;;;;;11.57;73.71;100212.47;4473958;32;34595;-58
2022/05/11 02:11:35;;;;;;;7.87;5.20;;;;;;;11.52;74.25;100219.13;4459967;32;34079;-58
2022/05/11 02:14:03;;;;;;;8.52;5.72;;;;;;;11.50;74.19;100212.97;4477257;32;33437;-57
2022/05/11 02:16:31;;;;;;;7.47;5.20;;;;;;;11.64;74.01;100212.75;4479816;32;33471;-58
2022/05/11 02:18:59;;;;;;;7.90;5.35;;;;;;;11.79;73.02;100216.06;4480874;32;33534;-57
2022/05/11 02:21:26;;;;;;;11.23;5.70;;;;;;;11.73;73.01;100215.78;4477630;32;33657;-58
2022/05/11 02:23:54;;;;;;;8.18;5.30;;;;;;;11.78;73.18;100212.59;4476595;32;33887;-58
2022/05/11 02:26:22;;;;;;;11.02;5.45;;;;;;;11.63;73.74;100209.28;4477499;32;34275;-58
2022/05/11 02:28:50;;;;;;;7.82;5.30;;;;;;;11.56;73.98;100208.06;4463004;32;33763;-57
2022/05/11 02:31:18;;;;;;;10.60;5.40;;;;;;;11.43;74.58;100213.50;4480001;32;34625;-58
2022/05/11 02:33:46;;;;;;;8.07;5.85;;;;;;;11.29;75.43;100209.38;4452442;32;33324;-58
2022/05/11 02:36:14;;;;;;;10.27;6.10;;;;;;;11.30;75.66;100206.84;4476881;32;33355;-57
2022/05/11 02:38:43;;;;;;;9.55;6.10;;;;;;;11.20;75.97;100210.69;4480714;32;33797;-58
2022/05/11 02:41:10;;;;;;;9.88;5.55;;;;;;;11.17;76.13;100205.34;4480478;32;33671;-58
2022/05/11 02:43:38;;;;;;;11.40;5.97;;;;;;;11.18;76.17;100201.97;4477784;32;33941;-58
2022/05/11 02:46:05;;;;;;;10.13;5.72;;;;;;;11.09;76.82;100205.81;4482060;32;33800;-58
2022/05/11 02:48:33;;;;;;;9.68;5.95;;;;;;;11.25;76.19;100207.44;4482448;32;33719;-57
2022/05/11 02:51:02;;;;;;;10.02;5.97;;;;;;;11.37;76.00;100208.03;4465567;32;34701;-58
2022/05/11 02:53:32;;;;;;;11.00;6.45;;;;;;;11.25;76.17;100207.44;4468156;32;33767;-58
2022/05/11 02:55:59;;;;;;;12.52;6.75;;;;;;;11.19;76.57;100206.31;4478323;32;34156;-58
2022/05/11 02:58:29;;;;;;;11.68;6.75;;;;;;;11.03;77.40;100203.81;4481514;32;33898;-58
2022/05/11 03:00:59;;;;;;;10.60;6.00;;;;;;;11.12;76.72;100201.62;4478190;32;34053;-57
2022/05/11 03:03:33;;;;;;;14.75;7.18;;;;;;;11.15;77.00;100207.00;4482099;32;33913;-58
2022/05/11 03:06:05;;;;;;;11.82;6.10;;;;;;;11.06;77.32;100201.34;4463062;32;33383;-58
2022/05/11 03:08:33;;;;;;;10.18;6.30;;;;;;;11.17;76.55;100210.53;4483527;32;33902;-58
2022/05/11 03:11:02;;;;;;;14.50;7.03;;;;;;;11.10;77.11;100202.38;4478038;32;34686;-58
2022/05/11 03:13:29;;;;;;;10.95;6.82;;;;;;;11.24;76.19;100201.34;4481686;32;33822;-58
2022/05/11 03:15:57;;;;;;;10.07;6.87;;;;;;;11.15;76.80;100207.00;4482147;32;33268;-58
2022/05/11 03:18:25;;;;;;;11.35;6.15;;;;;;;11.27;76.48;100205.81;4481072;32;33913;-58
2022/05/11 03:20:56;;;;;;;10.80;6.65;;;;;;;11.39;75.73;100207.28;4477904;32;33965;-58
2022/05/11 03:23:25;;;;;;;9.93;6.53;;;;;;;11.43;75.38;100215.22;4450544;32;33365;-58
2022/05/11 03:25:53;;;;;;;11.30;6.70;;;;;;;11.24;76.10;100208.25;4479402;32;33358;-58
2022/05/11 03:28:21;;;;;;;12.02;6.68;;;;;;;11.34;75.84;100208.78;4461751;32;31135;-58
2022/05/11 03:30:49;;;;;;;12.70;6.95;;;;;;;11.25;76.55;100212.63;4476914;32;33907;-58
2022/05/11 03:36:04;;;;;;;10.25;6.45;;;;;;;10.94;78.25;100216.31;4483325;32;33247;-58
2022/05/11 03:38:32;;;;;;;12.55;6.78;;;;;;;11.13;77.77;100229.34;4481483;32;33922;-57
2022/05/11 03:41:00;;;;;;;10.68;6.40;;;;;;;11.33;76.70;100219.94;4480566;32;33843;-57
2022/05/11 03:43:29;;;;;;;14.87;6.82;;;;;;;11.16;76.92;100223.44;4469074;32;34274;-58
2022/05/11 03:45:56;;;;;;;11.77;6.97;;;;;;;11.13;77.48;100226.75;4479538;32;33546;-58
2022/05/11 03:48:24;;;;;;;12.93;7.03;;;;;;;11.25;76.94;100233.37;4479058;32;33411;-58
2022/05/11 03:50:51;;;;;;;12.90;6.90;;;;;;;11.30;76.41;100227.59;4481177;32;33846;-57
2022/05/11 03:53:19;;;;;;;12.10;6.62;;;;;;;11.20;77.19;100234.03;4483063;32;32434;-58
2022/05/11 03:55:46;;;;;;;14.07;6.80;;;;;;;11.18;77.49;100232.16;4463479;32;32361;-58
2022/05/11 03:58:15;;;;;;;11.18;6.85;;;;;;;11.24;77.16;100226.41;4481391;32;34342;-58
2022/05/11 04:00:42;;;;;;;10.13;6.60;;;;;;;11.32;77.26;100232.84;4482324;32;33577;-58
2022/05/11 04:03:10;;;;;;;11.55;7.20;;;;;;;11.40;77.08;100229.81;4483773;32;33938;-58
2022/05/11 04:05:38;;;;;;;12.77;6.22;;;;;;;11.69;75.63;100235.50;4481388;32;33116;-58
2022/05/11 04:08:06;;;;;;;9.07;6.12;;;;;;;11.78;75.29;100237.63;4482367;32;33604;-57
2022/05/11 04:10:34;;;;;;;12.40;7.12;;;;;;;11.96;74.82;100233.34;4481350;32;33919;-57
2022/05/11 04:13:02;;;;;;;13.10;7.25;;;;;;;11.83;75.60;100241.34;4481867;32;33754;-58
2022/05/11 04:15:30;;;;;;;12.48;7.30;;;;;;;12.05;74.67;100242.34;4483880;32;34146;-58
2022/05/11 04:17:57;;;;;;;11.85;6.90;;;;;;;11.95;75.22;100231.53;4481328;32;34329;-58
2022/05/11 04:20:25;;;;;;;14.50;6.80;;;;;;;12.06;74.90;100237.25;4481205;32;33884;-58
2022/05/11 04:22:54;;;;;;;10.82;7.18;;;;;;;11.98;75.22;100246.41;4482123;32;34725;-58
2022/05/11 04:25:23;;;;;;;12.73;7.18;;;;;;;12.12;74.64;100244.44;4477517;32;33558;-58
2022/05/11 04:27:51;;;;;;;9.93;5.95;;;;;;;12.24;74.33;100250.16;4479817;32;33957;-58
2022/05/11 04:30:21;;;;;;;11.82;6.97;;;;;;;12.24;74.10;100250.16;4482566;32;34034;-58
2022/05/11 04:32:48;;;;;;;10.57;7.18;;;;;;;12.60;72.78;100244.84;4481445;32;35498;-58
2022/05/11 04:35:16;;;;;;;10.45;6.53;;;;;;;12.74;72.41;100248.03;4484727;32;33477;-58
2022/05/11 04:37:44;;;;;;;14.25;6.97;;;;;;;12.69;72.09;100250.44;4481709;32;34758;-58
2022/05/11 04:40:12;;;;;;;14.15;7.20;;;;;;;12.89;71.73;100253.00;4479227;32;33911;-58
2022/05/11 04:42:44;;;;;;;12.48;6.55;;;;;;;12.86;71.60;100252.88;4484242;32;33468;-58
2022/05/11 04:45:12;;;;;;;11.23;6.90;;;;;;;13.17;71.00;100245.53;4469635;32;31692;-57
2022/05/11 04:47:40;;;;;;;14.38;7.75;;;;;;;12.93;72.09;100249.72;4469806;32;33835;-58
2022/05/11 04:50:08;;;;;;;11.07;7.25;;;;;;;13.11;71.51;100240.06;4480241;32;33925;-58
2022/05/11 04:52:36;;;;;;;10.93;7.22;;;;;;;13.33;71.37;100251.41;4479795;32;34096;-58
2022/05/11 04:55:06;;;;;;;13.62;6.80;;;;;;;13.46;70.51;100245.88;4479398;32;34268;-58
2022/05/11 04:57:34;;;;;;;11.90;6.72;;;;;;;13.72;69.40;100252.09;4464750;32;33818;-58
2022/05/11 05:00:09;;;;;;;10.25;6.20;;;;;;;13.76;69.32;100253.13;4464278;32;32356;-58
2022/05/11 05:02:36;;;;;;;14.65;7.62;;;;;;;13.67;69.63;100247.53;4467696;31;33976;-58
2022/05/11 05:05:05;;;;;;;9.57;6.43;;;;;;;14.20;68.16;100251.31;4481988;32;33091;-58
2022/05/11 05:07:36;;;;;;;12.65;7.40;;;;;;;14.04;68.54;100251.56;4481358;32;34513;-58
2022/05/11 05:10:05;;;;;;;12.27;6.68;;;;;;;14.03;69.09;100255.00;4479557;32;35804;-59
2022/05/11 05:12:34;;;;;;;11.20;6.97;;;;;;;14.08;69.02;100256.06;4476327;32;34572;-58
2022/05/11 05:15:02;;;;;;;11.45;6.95;;;;;;;14.18;69.27;100257.28;4462217;32;32913;-58
2022/05/11 05:17:30;;;;;;;11.30;7.07;;;;;;;14.40;68.67;100256.38;4481608;32;33826;-58
2022/05/11 05:19:58;;;;;;;10.57;6.97;;;;;;;14.57;68.82;100259.62;4481586;32;34304;-58
2022/05/11 05:22:25;;;;;;;9.90;6.97;;;;;;;14.70;68.41;100249.69;4478948;32;33752;-58
2022/05/11 05:24:53;;;;;;;8.95;6.30;;;;;;;14.66;67.37;100253.03;4478893;32;33115;-58
2022/05/11 05:27:20;;;;;;;10.15;6.47;;;;;;;14.81;67.24;100251.78;4482618;32;33771;-58
2022/05/11 05:32:41;;;;;;;10.63;6.70;;;;;;;15.50;65.01;100247.13;4479944;32;33919;-58
2022/05/11 05:35:12;;;;;;;9.75;6.70;;;;;;;15.68;64.29;100249.47;4464625;32;34008;-58
2022/05/11 05:37:40;;;;;;;13.07;7.57;;;;;;;15.90;64.14;100253.66;4481261;32;34682;-57
2022/05/11 05:40:08;;;;;;;11.25;6.45;;;;;;;16.30;62.87;100248.69;4477651;32;33989;-58
2022/05/11 05:42:36;;;;;;;12.98;6.75;;;;;;;16.84;61.97;100248.50;4481926;32;34676;-58
2022/05/11 05:45:08;;;;;;;10.38;6.32;;;;;;;16.74;62.07;100250.78;4481142;32;33539;-58
2022/05/11 05:47:36;;;;;;;13.27;6.70;;;;;;;16.31;64.09;100246.12;4480708;32;33902;-58
2022/05/11 05:50:05;;;;;;;10.20;6.82;;;;;;;16.29;64.36;100245.22;4475515;32;33920;-58
2022/05/11 05:52:36;;;;;;;10.30;7.20;;;;;;;16.58;63.31;100250.37;4472277;32;34503;-58
2022/05/11 05:55:04;;;;;;;11.07;6.72;;;;;;;16.91;62.77;100254.78;4481013;32;33547;-58
2022/05/11 05:57:33;;;;;;;11.45;6.53;;;;;;;17.09;61.79;100250.03;4483226;32;33923;-58
2022/05/11 06:00:00;;;;;;;11.57;6.50;;;;;;;16.79;61.82;100243.97;4468897;32;33721;-58
2022/05/11 06:02:32;;;;;;;10.70;6.55;;;;;;;17.02;60.53;100242.88;4483364;32;35284;-58
2022/05/11 06:04:59;;;;;;;11.88;6.70;;;;;;;17.24;60.26;100248.62;4480712;32;33207;-58
2022/05/11 06:07:27;;;;;;;9.82;6.05;;;;;;;17.48;60.87;100246.63;4481143;32;33768;-59
2022/05/11 06:09:55;;;;;;;10.38;6.28;;;;;;;17.58;60.28;100246.84;4483769;32;34585;-58
2022/05/11 06:12:23;;;;;;;12.50;5.90;;;;;;;17.63;60.56;100245.19;4484304;32;34602;-58
2022/05/11 06:14:51;;;;;;;11.65;6.00;;;;;;;17.82;58.71;100260.50;4481073;32;33373;-58
2022/05/11 06:17:23;;;;;;;14.02;7.43;;;;;;;17.92;57.62;100251.13;4483882;32;33928;-58
2022/05/11 06:19:52;;;;;;;11.15;5.80;;;;;;;18.53;56.72;100250.66;4469367;32;33790;-58
2022/05/11 06:22:21;;;;;;;9.20;5.95;;;;;;;18.50;55.61;100251.47;4476174;32;33701;-58
2022/05/11 06:24:48;;;;;;;11.40;5.75;;;;;;;18.92;54.68;100240.06;4475285;32;33519;-58
2022/05/11 06:27:23;;;;;;;11.65;5.50;;;;;;;19.58;54.30;100249.00;4476671;32;33881;-58
2022/05/11 06:29:55;;;;;;;7.35;4.80;;;;;;;20.07;49.11;100247.97;4483280;32;33389;-58
2022/05/11 06:32:23;;;;;;;9.27;4.90;;;;;;;19.21;49.96;100242.31;4478505;32;33948;-58
2022/05/11 06:34:52;;;;;;;11.02;5.37;;;;;;;19.43;50.19;100235.62;4482602;32;32081;-58
2022/05/11 06:37:21;;;;;;;9.70;4.78;;;;;;;19.33;49.65;100239.88;4479349;32;33826;-58
2022/05/11 06:39:49;;;;;;;9.73;5.12;;;;;;;19.19;48.95;100241.38;4461660;32;32286;-58
2022/05/11 06:42:17;;;;;;;7.70;4.80;;;;;;;19.45;49.41;100242.72;4463425;32;33645;-58
2022/05/11 06:44:45;;;;;;;7.30;4.22;;;;;;;19.57;48.53;100246.38;4471690;32;34060;-58
2022/05/11 06:47:13;;;;;;;9.85;4.78;;;;;;;19.67;47.62;100243.03;4475865;32;34424;-58
2022/05/11 06:49:40;;;;;;;6.28;4.28;;;;;;;19.97;47.88;100241.72;4471414;32;34069;-58
2022/05/11 06:52:08;;;;;;;7.43;3.75;;;;;;;19.89;48.80;100243.38;4470292;32;33576;-58
2022/05/11 07:00:08;;;;;;;7.00;3.70;;;;;;;21.60;44.46;100238.19;4463824;32;32315;-59
2022/05/11 07:02:37;;;;;;;7.47;3.30;;;;;;;21.82;43.10;100238.31;4480163;32;33728;-59
2022/05/11 07:05:06;;;;;;;5.62;3.22;;;;;;;21.55;44.00;100240.78;4473432;32;33808;-59
2022/05/11 07:07:35;;;;;;;5.87;2.70;;;;;;;22.40;43.50;100238.62;4477965;32;33207;-58
2022/05/11 07:10:03;;;;;;;8.15;3.50;;;;;;;22.26;42.23;100235.06;4461909;32;33464;-58
2022/05/11 07:12:35;;;;;;;7.03;3.50;;;;;;;21.84;42.81;100240.09;4479216;32;33689;-59
2022/05/11 07:15:06;;;;;;;5.62;3.33;;;;;;;22.03;44.50;100235.81;4478624;32;32969;-59
2022/05/11 07:17:42;;;;;;;5.00;3.00;;;;;;;22.57;42.99;100236.91;4468130;32;32424;-58
2022/05/11 07:20:14;;;;;;;8.60;3.83;;;;;;;23.15;39.75;100235.28;4476370;32;34772;-58
2022/05/11 07:22:42;;;;;;;8.48;3.50;;;;;;;22.97;40.74;100237.00;4481062;32;34187;-58
2022/05/11 07:25:13;;;;;;;5.68;3.20;;;;;;;22.73;42.75;100227.25;4447817;32;33676;-59
2022/05/11 07:27:43;;;;;;;5.47;3.58;;;;;;;23.26;40.40;100225.59;4476891;32;33747;-59
2022/05/11 07:30:14;;;;;;;8.18;3.60;;;;;;;23.61;38.75;100229.97;4475989;32;33991;-58
2022/05/11 07:32:42;;;;;;;6.35;3.15;;;;;;;22.78;41.17;100229.94;4446494;32;32663;-58
2022/05/11 07:35:10;;;;;;;5.20;3.00;;;;;;;22.35;40.81;100229.81;4481264;32;34123;-58
2022/05/11 07:37:37;;;;;;;8.13;3.17;;;;;;;22.49;41.10;100233.37;4478286;32;32867;-59
2022/05/11 07:40:08;;;;;;;8.18;3.28;;;;;;;22.63;40.28;100228.13;4478401;32;34581;-59
2022/05/11 07:42:37;;;;;;;6.07;3.50;;;;;;;22.58;40.36;100230.78;4476693;32;33753;-59
2022/05/11 07:45:05;;;;;;;5.28;3.10;;;;;;;22.78;38.63;100222.00;4482002;32;33288;-59
2022/05/11 07:47:33;;;;;;;6.40;3.65;;;;;;;23.45;39.13;100233.50;4462104;32;34024;-58
2022/05/11 07:50:01;;;;;;;6.18;3.37;;;;;;;22.95;38.30;100230.84;4478950;32;33630;-58
2022/05/11 07:52:30;;;;;;;7.20;3.20;;;;;;;23.03;37.16;100230.00;4462139;32;33715;-58
2022/05/11 07:54:58;;;;;;;7.28;3.10;;;;;;;22.79;38.53;100229.03;4476032;32;33473;-59
2022/05/11 08:00:13;;;;;;;4.57;3.30;;;;;;;23.41;38.47;100232.66;4475074;32;33795;-58
2022/05/11 08:02:41;;;;;;;5.95;2.78;;;;;;;22.94;39.01;100236.97;4462388;32;32247;-58
2022/05/11 08:05:11;;;;;;;6.25;2.92;;;;;;;23.19;38.31;100229.12;4481854;31;34133;-58
2022/05/11 08:07:56;;;;;;;6.50;3.20;;;;;;;24.36;37.18;100228.88;4480030;32;33573;-58
2022/05/11 08:10:34;;;;;;;8.00;3.10;;;;;;;23.22;37.16;100231.78;4477458;32;33687;-58
2022/05/11 08:13:06;;;;;;;5.55;3.35;;;;;;;23.44;37.47;100232.63;4476845;32;34846;-59
2022/05/11 08:15:39;;;;;;;6.97;3.60;;;;;;;23.14;36.51;100229.12;4477604;31;34412;-59
2022/05/11 08:18:07;;;;;;;6.03;3.10;;;;;;;23.89;36.70;100224.63;4475967;32;32895;-59
2022/05/11 08:20:38;;;;;;;5.12;2.95;;;;;;;23.70;36.01;100229.97;4465754;32;34344;-58
2022/05/11 08:23:05;;;;;;;6.40;2.90;;;;;;;23.84;35.51;100221.16;4480070;32;33990;-59
2022/05/11 08:25:35;;;;;;;5.25;2.50;;;;;;;24.29;35.64;100213.91;4471139;32;32003;-59
2022/05/11 08:28:11;;;;;;;5.43;2.80;;;;;;;25.28;34.04;100220.37;4481091;32;33975;-59
2022/05/11 08:33:28;;;;;;;5.93;2.90;;;;;;;24.67;33.55;100221.69;4478121;32;33988;-59
2022/05/11 08:36:18;;;;;;;4.40;2.65;;;;;;;24.58;34.32;100215.56;4479956;32;33285;-58
2022/05/11 08:38:55;;;;;;;9.85;3.10;;;;;;;25.81;32.50;100211.91;4479406;32;34015;-59
2022/05/11 08:41:27;;;;;;;6.70;2.60;;;;;;;25.92;32.72;100220.63;4471688;31;34610;-59
2022/05/11 08:44:13;;;;;;;7.43;2.67;;;;;;;26.96;30.85;100213.03;4465735;32;33632;-59
2022/05/11 08:46:59;;;;;;;5.35;2.75;;;;;;;27.84;28.15;100216.84;4468704;32;33079;-59
2022/05/11 08:49:39;;;;;;;4.60;2.85;;;;;;;28.14;28.65;100206.50;4480674;32;34513;-59
2022/05/11 08:52:16;;;;;;;6.45;2.85;;;;;;;26.74;29.70;100212.50;4481503;32;33429;-59
2022/05/11 08:54:49;;;;;;;6.12;2.90;;;;;;;27.87;27.36;100214.13;4481357;32;34490;-59
2022/05/11 08:57:23;;;;;;;7.28;2.90;;;;;;;28.15;28.24;100208.28;4470821;32;32718;-59
2022/05/11 08:59:57;;;;;;;6.53;2.60;;;;;;;26.47;29.42;100211.97;4482717;32;33924;-59
2022/05/11 09:02:30;;;;;;;7.18;2.65;;;;;;;25.89;29.04;100218.88;4485096;32;33696;-58
2022/05/11 09:05:00;;;;;;;5.22;2.45;;;;;;;26.02;28.96;100209.03;4469808;32;34132;-59
2022/05/11 09:07:32;;;;;;;4.78;2.83;;;;;;;26.10;30.32;100206.28;4484505;32;33420;-59
2022/05/11 09:10:00;;;;;;;6.53;3.00;;;;;;;25.70;30.88;100218.19;4471854;32;33825;-59
2022/05/11 09:12:28;;;;;;;6.35;3.08;;;;;;;25.76;31.07;100216.37;4484165;32;33788;-59
2022/05/11 09:14:57;;;;;;;4.18;2.53;;;;;;;26.38;29.71;100201.47;4467259;32;32619;-59
2022/05/11 09:17:29;;;;;;;6.80;2.62;;;;;;;27.30;27.06;100209.00;4467125;32;33222;-59
2022/05/11 09:20:08;;;;;;;6.85;2.60;;;;;;;27.24;28.25;100199.31;4484036;32;34496;-60
2022/05/11 09:22:41;;;;;;;5.20;3.00;;;;;;;27.88;26.88;100201.72;4483818;32;33610;-59
2022/05/11 09:25:25;;;;;;;5.55;2.65;;;;;;;28.02;26.91;100210.31;4470284;32;33532;-59
2022/05/11 09:28:31;;;;;;;5.93;2.50;;;;;;;27.43;29.43;100206.09;4470535;32;34133;-59
2022/05/11 09:31:08;;;;;;;6.28;2.72;;;;;;;28.26;27.80;100203.59;4471688;32;33423;-59
2022/05/11 09:33:41;;;;;;;5.12;2.50;;;;;;;27.76;27.54;100214.34;4482748;32;33461;-59
2022/05/11 09:36:11;;;;;;;5.53;2.58;;;;;;;26.51;28.15;100207.50;4483522;32;34609;-59
2022/05/11 09:39:21;;;;;;;6.72;2.90;;;;;;;28.20;26.47;100199.28;4477317;32;33452;-59
2022/05/11 09:41:51;;;;;;;7.05;2.65;;;;;;;27.90;28.00;100206.13;4469706;32;34349;-59
2022/05/11 09:44:21;;;;;;;6.25;2.60;;;;;;;28.52;25.78;100197.72;4485796;31;33200;-59
2022/05/11 09:46:49;;;;;;;7.53;2.40;;;;;;;28.36;25.31;100194.50;4481660;32;34181;-60
2022/05/11 09:49:17;;;;;;;4.30;2.42;;;;;;;28.70;26.07;100198.19;4471103;32;33355;-59
2022/05/11 09:51:45;;;;;;;6.00;2.90;;;;;;;29.04;27.08;100200.06;4483858;32;33469;-59
2022/05/11 09:54:18;;;;;;;4.90;2.75;;;;;;;27.13;27.05;100207.44;4468182;32;34529;-60
2022/05/11 09:56:48;;;;;;;5.25;2.80;;;;;;;27.76;27.33;100208.16;4477556;32;34797;-59
2022/05/11 09:59:20;;;;;;;6.25;3.00;;;;;;;27.24;26.13;100205.53;4479996;32;33830;-59
2022/05/11 10:01:49;;;;;;;5.75;2.47;;;;;;;28.89;25.94;100193.31;4468250;32;33525;-59
2022/05/11 10:04:22;;;;;;;5.12;2.90;;;;;;;29.36;26.02;100188.56;4471085;32;33906;-59
2022/05/11 10:07:07;;;;;;;6.28;3.17;;;;;;;30.20;24.55;100185.38;4472953;32;32383;-59
2022/05/11 10:09:41;;;;;;;5.50;3.22;;;;;;;28.00;27.72;100186.37;4464538;32;33476;-59
2022/05/11 10:12:14;;;;;;;7.53;3.03;;;;;;;26.71;29.51;100196.59;4470916;32;33526;-59
2022/05/11 10:23:55;;;;;;;5.97;3.10;;;;;;;26.96;27.15;100183.78;4490683;31;33510;-59
2022/05/11 10:26:42;;;;;;;5.82;2.67;;;;;;;27.23;27.99;100177.13;4466717;32;34556;-59
2022/05/11 10:29:48;;;;;;;5.72;2.65;;;;;;;26.88;26.36;100181.25;4470947;31;33848;-59
2022/05/11 10:32:51;;;;;;;4.93;2.65;;;;;;;27.18;28.59;100179.00;4483715;31;33329;-59
2022/05/11 10:35:22;;;;;;;10.90;3.30;;;;;;;27.21;27.60;100184.25;4482862;31;33777;-59
2022/05/11 10:37:58;;;;;;;4.65;2.47;;;;;;;28.06;27.44;100176.50;4467918;32;34436;-59
2022/05/11 10:40:48;;;;;;;5.30;2.70;;;;;;;28.24;26.60;100176.13;4465851;32;33332;-60
2022/05/11 10:43:44;;;;;;;6.43;3.00;;;;;;;28.66;26.44;100170.75;4474025;32;33543;-59
2022/05/11 10:46:55;;;;;;;6.68;2.62;;;;;;;28.75;26.07;100170.53;4467594;31;34513;-59
2022/05/11 10:49:34;;;;;;;5.07;2.65;;;;;;;28.08;25.13;100172.91;4481477;32;32257;-59
2022/05/11 10:52:29;;;;;;;5.75;3.20;;;;;;;27.25;24.60;100170.06;4477873;32;33928;-59
2022/05/11 10:55:03;;;;;;;5.82;2.67;;;;;;;26.71;26.41;100166.50;4482776;31;33470;-59
2022/05/11 10:57:41;;;;;;;5.40;2.45;;;;;;;27.52;26.65;100170.44;4468694;32;35142;-59
2022/05/11 11:00:14;;;;;;;5.07;2.45;;;;;;;28.16;25.72;100159.41;4454978;32;34145;-59
2022/05/11 11:02:47;;;;;;;4.70;2.22;;;;;;;28.43;24.84;100157.91;4475535;32;33761;-60
2022/05/11 11:05:21;;;;;;;5.80;2.50;;;;;;;27.91;24.02;100154.63;4483979;32;34168;-59
2022/05/11 11:08:15;;;;;;;8.40;2.50;;;;;;;27.54;25.26;100160.62;4484836;32;33879;-60
2022/05/11 11:10:49;;;;;;;5.20;2.62;;;;;;;28.03;26.39;100159.69;4484875;32;34704;-59
2022/05/11 11:13:32;;;;;;;4.57;2.40;;;;;;;26.90;25.91;100156.47;4469213;32;33623;-60
2022/05/11 11:16:02;;;;;;;6.32;2.30;;;;;;;28.00;23.82;100154.41;4474061;32;33526;-60
2022/05/11 11:18:36;;;;;;;5.80;2.67;;;;;;;28.82;25.23;100158.81;4463750;32;34588;-58
2022/05/11 11:21:08;;;;;;;5.47;2.97;;;;;;;27.67;25.18;100155.97;4453662;32;34906;-59
2022/05/11 11:23:38;;;;;;;6.85;2.90;;;;;;;26.32;26.68;100148.44;4467247;32;33857;-59
2022/05/11 11:26:28;;;;;;;6.05;2.85;;;;;;;27.18;28.97;100141.78;4468701;32;33016;-60
2022/05/11 11:28:55;;;;;;;4.22;2.95;;;;;;;27.41;28.37;100144.06;4482891;32;34601;-59
2022/05/11 11:31:27;;;;;;;4.43;2.35;;;;;;;27.67;26.75;100144.44;4484095;32;33738;-59
2022/05/11 11:34:04;;;;;;;7.80;2.60;;;;;;;27.93;24.41;100135.94;4469329;32;34613;-59
2022/05/11 11:36:37;;;;;;;4.50;2.60;;;;;;;28.85;27.84;100140.97;4483623;32;34260;-59
2022/05/11 11:39:07;;;;;;;5.00;2.65;;;;;;;28.80;25.87;100133.97;4482421;32;34862;-59
2022/05/11 11:41:40;;;;;;;4.10;2.65;;;;;;;29.75;24.71;100130.59;4480323;32;34012;-59
2022/05/11 11:44:20;;;;;;;3.80;2.33;;;;;;;29.34;24.26;100126.38;4472251;32;33818;-59
2022/05/11 11:46:50;;;;;;;7.82;2.45;;;;;;;27.81;24.13;100131.72;4467469;32;31877;-59
2022/05/11 11:49:18;;;;;;;7.62;2.40;;;;;;;28.85;23.90;100122.31;4475281;32;33933;-59
2022/05/11 11:51:53;;;;;;;4.53;2.62;;;;;;;28.66;25.20;100116.56;4482145;32;33930;-59
2022/05/11 11:54:27;;;;;;;7.65;2.70;;;;;;;29.06;24.75;100115.56;4479651;32;34606;-60
2022/05/11 11:56:57;;;;;;;7.68;3.12;;;;;;;27.85;24.11;100098.81;4474454;32;34218;-59
2022/05/11 11:59:25;;;;;;;6.57;2.70;;;;;;;28.24;25.34;100105.06;4456154;32;32510;-59
2022/05/11 12:01:57;;;;;;;6.28;2.80;;;;;;;27.68;24.37;100106.25;4483893;32;33831;-59
2022/05/11 12:04:29;;;;;;;7.55;2.85;;;;;;;28.08;25.24;100100.12;4468387;32;34521;-59
2022/05/11 12:15:40;;;;;;;5.25;2.85;;;;;;;27.64;25.93;100095.69;4463599;32;34077;-60
2022/05/11 12:18:21;;;;;;;6.93;2.85;;;;;;;27.81;25.25;100086.47;4481327;32;34308;-59
2022/05/11 12:20:49;;;;;;;4.68;2.58;;;;;;;27.47;24.70;100092.50;4484342;32;33658;-59